Time;durP1;ratioP1;P1;durP2;ratioP2;P2;SDS_P1;SDS_P2;PMS_P1;PMS_P2;Temp;Humidity;BMP_temperature;BMP_pressure;BME280_temperature;BME280_humidity;BME280_pressure;Samples;Min_cycle;Max_cycle;Signal;HPM_P1;HPM_P2
2021/12/18 00:01:52;;;;;;;;;26.00;22.80;;;;;2.68;81.76;100403.78;5012040;28;8841;-70
2021/12/18 00:04:22;;;;;;;;;27.20;21.20;;;;;2.59;81.95;100392.19;5011836;28;8846;-67
2021/12/18 00:06:51;;;;;;;;;22.00;22.00;;;;;2.68;81.54;100405.50;4993273;28;8987;-69
2021/12/18 00:09:25;;;;;;;;;26.00;23.00;;;;;2.45;82.49;100396.72;4992198;28;8902;-68
2021/12/18 00:11:54;;;;;;;;;20.80;19.40;;;;;2.46;82.95;100401.97;5005949;28;9642;-69
2021/12/18 00:14:23;;;;;;;;;21.40;17.20;;;;;2.74;82.09;100392.88;4990027;28;9618;-70
2021/12/18 00:16:52;;;;;;;;;24.60;21.40;;;;;2.77;81.41;100400.75;4992042;28;8864;-68
2021/12/18 00:19:25;;;;;;;;;19.60;17.60;;;;;2.45;82.68;100402.75;4989437;28;8844;-69
2021/12/18 00:21:55;;;;;;;;;24.40;21.00;;;;;2.19;84.00;100409.25;4989400;28;8852;-68
2021/12/18 00:24:24;;;;;;;;;24.20;21.80;;;;;2.35;83.92;100400.59;5005784;28;8893;-70
2021/12/18 00:26:53;;;;;;;;;18.00;15.00;;;;;2.18;84.63;100417.81;5005734;28;8868;-69
2021/12/18 00:29:22;;;;;;;;;26.40;20.60;;;;;2.08;85.01;100424.22;5005716;28;8848;-68
2021/12/18 00:31:52;;;;;;;;;20.20;14.00;;;;;2.13;85.54;100419.28;4989271;28;8983;-68
2021/12/18 00:34:22;;;;;;;;;20.60;19.60;;;;;2.08;86.16;100416.50;4989275;28;8860;-68
2021/12/18 00:36:51;;;;;;;;;25.40;20.40;;;;;2.09;86.38;100391.66;4925453;28;8869;-68
2021/12/18 00:39:20;;;;;;;;;10.80;7.80;;;;;2.36;85.56;100348.28;4989204;28;8931;-70
2021/12/18 00:42:00;;;;;;;;;12.20;12.00;;;;;2.38;84.17;100374.09;5005647;28;8880;-69
2021/12/18 00:44:29;;;;;;;;;13.60;12.40;;;;;2.35;84.07;100385.16;4989103;28;9615;-70
2021/12/18 00:46:57;;;;;;;;;18.40;16.60;;;;;2.55;83.94;100380.88;4972807;28;8864;-69
2021/12/18 00:49:27;;;;;;;;;13.40;11.00;;;;;2.69;83.49;100395.28;4989054;28;8844;-70
2021/12/18 00:51:56;;;;;;;;;11.40;10.60;;;;;2.97;82.96;100396.50;4991636;28;9598;-67
2021/12/18 00:54:24;;;;;;;;;14.00;13.00;;;;;3.24;81.70;100395.94;4991598;28;8865;-68
2021/12/18 00:56:53;;;;;;;;;15.60;9.60;;;;;3.51;80.72;100399.66;4991313;28;8865;-68
2021/12/18 00:59:22;;;;;;;;;12.20;10.40;;;;;3.68;79.37;100413.25;4991152;28;8864;-69
2021/12/18 01:01:50;;;;;;;;;17.80;14.80;;;;;3.68;79.10;100425.25;4991559;28;8848;-69
2021/12/18 01:04:19;;;;;;;;;15.20;12.40;;;;;3.57;79.76;100441.97;4991005;28;8954;-70
2021/12/18 01:06:50;;;;;;;;;16.80;12.80;;;;;3.67;79.76;100432.13;5022586;28;8887;-68
2021/12/18 01:09:24;;;;;;;;;17.80;16.60;;;;;3.73;78.66;100440.94;4991233;28;8914;-70
2021/12/18 01:11:53;;;;;;;;;18.20;15.80;;;;;3.63;79.21;100434.50;5022585;28;8877;-68
2021/12/18 01:14:33;;;;;;;;;11.60;11.60;;;;;3.31;79.53;100429.75;4998694;28;8905;-68
2021/12/18 01:22:45;;;;;;;;;23.40;19.00;;;;;3.12;79.96;100425.50;4988355;28;8849;-69
2021/12/18 01:25:14;;;;;;;;;17.00;10.80;;;;;3.24;79.43;100422.56;4988775;28;8874;-69
2021/12/18 01:27:43;;;;;;;;;19.20;15.60;;;;;3.00;80.64;100418.94;5021148;28;8866;-69
2021/12/18 01:30:14;;;;;;;;;23.20;20.00;;;;;2.89;81.12;100421.94;4988512;28;8897;-69
2021/12/18 01:32:43;;;;;;;;;20.20;17.00;;;;;2.76;81.15;100423.88;4988216;28;8846;-69
2021/12/18 01:35:12;;;;;;;;;16.40;15.20;;;;;2.84;81.06;100427.69;4976218;28;8918;-69
2021/12/18 01:37:44;;;;;;;;;18.20;15.20;;;;;2.81;80.86;100419.81;4968919;28;8848;-69
2021/12/18 01:40:14;;;;;;;;;20.20;17.40;;;;;2.79;81.26;100413.72;4968846;28;8848;-68
2021/12/18 01:46:00;;;;;;;;;21.60;16.80;;;;;2.68;81.92;100419.25;4968746;28;9622;-69
2021/12/18 01:51:24;;;;;;;;;19.40;13.00;;;;;2.51;82.46;100417.59;4879537;29;8913;-69
2021/12/18 01:53:56;;;;;;;;;18.40;15.60;;;;;2.39;83.22;100414.47;4873982;29;8885;-72
2021/12/18 01:56:27;;;;;;;;;17.20;14.00;;;;;2.29;83.43;100419.19;4873577;29;9613;-69
2021/12/18 01:58:56;;;;;;;;;22.60;20.80;;;;;2.31;83.58;100419.28;4889091;29;8941;-71
2021/12/18 02:01:26;;;;;;;;;20.00;16.20;;;;;2.21;83.86;100428.25;4843140;29;8846;-70
2021/12/18 02:03:55;;;;;;;;;18.40;17.00;;;;;2.33;83.57;100427.94;4889106;29;8858;-69
2021/12/18 02:06:25;;;;;;;;;19.00;16.20;;;;;2.32;83.16;100433.88;4873511;29;9667;-68
2021/12/18 02:08:55;;;;;;;;;19.80;18.20;;;;;2.33;83.00;100428.81;4873318;29;8886;-71
2021/12/18 02:11:28;;;;;;;;;15.00;12.20;;;;;2.22;83.89;100440.28;4873090;29;8916;-69
2021/12/18 02:22:20;;;;;;;;;16.00;15.40;;;;;2.36;83.18;100432.34;4910700;29;8885;-70
2021/12/18 02:24:50;;;;;;;;;23.80;17.00;;;;;2.50;82.43;100431.31;4910991;29;8850;-67
2021/12/18 02:27:19;;;;;;;;;16.00;14.80;;;;;2.55;82.57;100432.38;4928982;28;8870;-68
2021/12/18 02:29:48;;;;;;;;;16.20;13.20;;;;;2.53;83.04;100436.56;5023267;28;8937;-70
2021/12/18 02:32:20;;;;;;;;;16.60;16.60;;;;;2.59;83.20;100425.69;5006990;28;8928;-68
2021/12/18 02:34:56;;;;;;;;;10.20;7.60;;;;;2.71;82.95;100432.28;5007002;28;8968;-68
2021/12/18 02:37:29;;;;;;;;;16.20;16.20;;;;;2.88;82.75;100427.00;5006496;28;8880;-68
2021/12/18 02:42:40;;;;;;;;;12.80;12.80;;;;;2.73;82.57;100409.16;4948682;28;8846;-70
2021/12/18 02:45:12;;;;;;;;;19.60;18.60;;;;;2.53;83.10;100404.00;4932384;28;8869;-68
2021/12/18 02:47:40;;;;;;;;;16.00;16.00;;;;;2.56;83.69;100410.97;4948396;28;8900;-68
2021/12/18 02:50:10;;;;;;;;;24.60;20.80;;;;;2.60;83.64;100409.44;4918104;28;8866;-70
2021/12/18 02:52:40;;;;;;;;;20.60;16.60;;;;;2.81;83.31;100417.22;4951672;28;8994;-69
2021/12/18 02:55:08;;;;;;;;;19.60;17.40;;;;;2.91;82.97;100427.13;4933613;28;8964;-69
2021/12/18 02:57:37;;;;;;;;;21.80;14.80;;;;;2.93;82.13;100434.13;4932278;28;8861;-68
2021/12/18 03:00:07;;;;;;;;;19.20;18.40;;;;;2.76;82.50;100423.88;4947672;28;8916;-69
2021/12/18 03:02:41;;;;;;;;;21.40;19.00;;;;;2.71;82.68;100426.25;4947817;28;8854;-69
2021/12/18 03:05:19;;;;;;;;;18.00;15.80;;;;;2.73;82.28;100428.06;4947758;28;8940;-69
2021/12/18 03:07:55;;;;;;;;;14.40;13.40;;;;;2.49;83.10;100430.41;4915817;28;8900;-69
2021/12/18 03:19:43;;;;;;;;;21.00;16.80;;;;;1.86;86.02;100437.72;4951497;28;8932;-68
2021/12/18 03:25:00;;;;;;;;;17.60;15.40;;;;;2.33;83.45;100435.66;4990338;28;8876;-69
2021/12/18 03:27:30;;;;;;;;;15.80;15.80;;;;;2.41;82.70;100449.75;5002506;28;8891;-70
2021/12/18 03:29:58;;;;;;;;;16.40;14.80;;;;;2.28;82.99;100447.44;4988212;28;8888;-69
2021/12/18 03:32:27;;;;;;;;;16.40;15.20;;;;;2.34;82.26;100446.03;4990556;28;8860;-69
2021/12/18 03:34:56;;;;;;;;;15.60;12.60;;;;;2.28;82.02;100435.44;4990359;28;8957;-69
2021/12/18 03:37:25;;;;;;;;;16.20;15.00;;;;;2.18;82.18;100446.13;4990163;28;8881;-68
2021/12/18 03:39:53;;;;;;;;;18.60;13.80;;;;;2.21;83.11;100437.66;4990389;28;8864;-68
2021/12/18 03:42:24;;;;;;;;;16.20;16.00;;;;;2.06;83.18;100450.66;4990400;28;9603;-69
2021/12/18 03:44:52;;;;;;;;;5.60;4.20;;;;;1.91;83.47;100441.41;4990527;28;8857;-69
2021/12/18 03:47:21;;;;;;;;;21.00;18.00;;;;;2.02;83.85;100448.75;4990136;28;8853;-67
2021/12/18 03:49:49;;;;;;;;;21.40;16.40;;;;;2.26;82.85;100447.34;4995000;28;8853;-69
2021/12/18 03:52:18;;;;;;;;;19.40;13.20;;;;;2.16;82.94;100446.84;4974050;28;8911;-70
2021/12/18 03:54:47;;;;;;;;;16.80;14.40;;;;;2.42;82.35;100454.13;4992436;28;8841;-70
2021/12/18 03:57:16;;;;;;;;;18.40;18.40;;;;;2.33;81.82;100467.44;4992565;28;8832;-69
2021/12/18 03:59:45;;;;;;;;;17.40;16.20;;;;;2.47;81.88;100462.91;4992424;28;8845;-68
2021/12/18 04:02:14;;;;;;;;;17.60;11.60;;;;;2.32;81.94;100457.06;4974324;28;8891;-69
2021/12/18 04:04:43;;;;;;;;;15.40;14.60;;;;;2.37;81.83;100465.88;4992144;28;8865;-68
2021/12/18 04:07:12;;;;;;;;;15.60;14.00;;;;;2.33;81.74;100467.44;4992159;28;9721;-70
2021/12/18 04:09:41;;;;;;;;;19.20;16.00;;;;;2.39;82.08;100471.97;5023538;28;8864;-69
2021/12/18 04:12:10;;;;;;;;;14.40;14.00;;;;;2.34;81.22;100465.72;5009248;28;8844;-68
2021/12/18 04:14:39;;;;;;;;;16.40;13.40;;;;;2.61;80.97;100475.53;5009112;28;8880;-69
2021/12/18 04:17:09;;;;;;;;;19.80;19.40;;;;;2.92;79.85;100481.28;5009161;28;9602;-69
2021/12/18 04:19:38;;;;;;;;;15.20;13.80;;;;;2.88;79.33;100476.81;5009248;28;8860;-68
2021/12/18 04:22:07;;;;;;;;;16.60;15.20;;;;;3.12;78.59;100483.91;4992718;28;8884;-68
2021/12/18 04:24:35;;;;;;;;;86.75;69.50;;;;;3.35;78.12;100478.88;5008851;28;8957;-69
2021/12/18 04:27:04;;;;;;;;;27.80;23.20;;;;;3.09;77.68;100488.91;5008886;28;8851;-69
2021/12/18 04:29:33;;;;;;;;;44.00;33.80;;;;;3.39;77.45;100493.66;5008716;28;8856;-68
2021/12/18 04:32:01;;;;;;;;;39.25;34.50;;;;;3.55;77.08;100498.66;5008801;28;8840;-68
2021/12/18 04:34:31;;;;;;;;;19.60;16.20;;;;;3.43;76.15;100500.72;5009069;28;8832;-69
2021/12/18 04:37:00;;;;;;;;;19.80;14.80;;;;;3.58;75.31;100496.22;5008615;28;8914;-68
2021/12/18 04:39:28;;;;;;;;;32.60;27.60;;;;;3.63;75.62;100498.97;5008708;28;8972;-68
2021/12/18 04:41:58;;;;;;;;;82.00;66.75;;;;;3.61;75.49;100506.66;4991854;28;8867;-69
2021/12/18 04:44:26;;;;;;;;;20.00;17.40;;;;;3.63;75.10;100504.13;4992413;28;8903;-69
2021/12/18 04:46:55;;;;;;;;;22.20;17.20;;;;;3.62;74.92;100508.41;4991719;28;8852;-69
2021/12/18 04:49:24;;;;;;;;;20.20;16.40;;;;;3.59;74.13;100515.13;5006803;28;9606;-69
2021/12/18 04:51:53;;;;;;;;;17.00;12.20;;;;;3.65;74.92;100512.84;4991791;28;8934;-68
2021/12/18 04:54:22;;;;;;;;;16.80;14.20;;;;;3.60;74.12;100517.78;4991485;28;9029;-69
2021/12/18 04:56:51;;;;;;;;;22.00;19.40;;;;;3.61;74.60;100531.56;4990847;28;9598;-70
2021/12/18 04:59:20;;;;;;;;;27.40;25.20;;;;;3.79;74.14;100522.03;4989074;28;8848;-69
2021/12/18 05:01:49;;;;;;;;;25.00;24.20;;;;;3.98;74.43;100525.41;4991338;28;9587;-69
2021/12/18 05:04:19;;;;;;;;;132.25;117.25;;;;;4.17;75.14;100511.56;4991023;28;9614;-69
2021/12/18 05:06:50;;;;;;;;;65.25;52.50;;;;;4.33;73.88;100513.94;5007915;28;10977;-69
2021/12/18 05:09:21;;;;;;;;;18.80;17.40;;;;;3.93;72.06;100524.31;4991463;28;9649;-68
2021/12/18 05:11:50;;;;;;;;;14.60;14.00;;;;;4.01;72.46;100525.53;5007834;28;9058;-69
2021/12/18 05:14:19;;;;;;;;;60.75;51.25;;;;;4.05;73.50;100530.88;4991593;28;8875;-69
2021/12/18 05:16:48;;;;;;;;;37.00;32.20;;;;;4.25;72.58;100518.81;5007973;28;9054;-70
2021/12/18 05:19:16;;;;;;;;;14.80;10.80;;;;;4.25;71.75;100521.38;4943987;28;8945;-69
2021/12/18 05:21:45;;;;;;;;;13.40;11.00;;;;;3.78;72.25;100532.28;4990952;28;9582;-69
2021/12/18 05:24:14;;;;;;;;;18.00;17.00;;;;;3.75;71.95;100538.19;4975734;28;8875;-69
2021/12/18 05:26:44;;;;;;;;;15.00;14.80;;;;;3.29;74.61;100543.94;5007828;28;9632;-68
2021/12/18 05:29:12;;;;;;;;;17.60;14.00;;;;;3.59;74.40;100536.69;5007647;28;8860;-71
2021/12/18 05:31:41;;;;;;;;;17.80;16.20;;;;;3.25;75.04;100548.06;5007326;28;8869;-70
2021/12/18 05:34:09;;;;;;;;;15.00;14.40;;;;;3.35;75.14;100549.34;5007959;28;8867;-69
2021/12/18 05:37:11;;;;;;;;;17.00;16.40;;;;;3.55;74.06;100554.50;5007762;28;8856;-69
2021/12/18 05:39:30;;;;;;;;;15.60;11.00;;;;;3.45;73.97;100556.69;4990317;28;8977;-68
2021/12/18 05:42:00;;;;;;;;;12.40;12.00;;;;;3.60;73.61;100564.22;4990374;28;8856;-68
2021/12/18 05:44:29;;;;;;;;;15.20;14.20;;;;;3.61;73.44;100552.19;4990583;28;8868;-68
2021/12/18 05:46:58;;;;;;;;;16.80;14.20;;;;;3.62;73.11;100560.00;5021673;28;10019;-69
2021/12/18 05:49:26;;;;;;;;;20.60;16.60;;;;;3.76;73.82;100564.88;4972015;28;8942;-69
2021/12/18 05:51:55;;;;;;;;;11.20;10.80;;;;;3.88;72.40;100557.69;4989525;28;8849;-69
2021/12/18 05:54:24;;;;;;;;;17.40;16.20;;;;;3.88;72.72;100565.41;4990302;28;8975;-68
2021/12/18 05:56:53;;;;;;;;;14.80;11.60;;;;;3.82;73.33;100567.72;4956031;28;9630;-70
2021/12/18 05:59:23;;;;;;;;;14.20;12.20;;;;;3.92;72.75;100569.88;4987785;28;8887;-69
2021/12/18 06:01:52;;;;;;;;;14.00;13.20;;;;;3.93;72.70;100569.06;4990227;28;8970;-68
2021/12/18 06:04:20;;;;;;;;;12.00;10.60;;;;;4.03;72.60;100573.81;4971971;28;9192;-68
2021/12/18 06:06:49;;;;;;;;;7.80;7.40;;;;;3.96;71.67;100584.69;4990349;28;8967;-68
2021/12/18 06:09:18;;;;;;;;;13.80;12.20;;;;;4.02;72.21;100584.06;4989965;28;8902;-69
2021/12/18 06:11:46;;;;;;;;;11.00;11.00;;;;;4.12;71.26;100590.50;5003531;28;8869;-69
2021/12/18 06:14:15;;;;;;;;;12.40;11.40;;;;;4.28;71.20;100586.03;4990002;28;8845;-68
2021/12/18 06:16:45;;;;;;;;;5.40;2.60;;;;;4.24;70.64;100591.88;4989935;28;8972;-69
2021/12/18 06:19:13;;;;;;;;;17.00;12.00;;;;;4.47;70.39;100595.41;4989367;28;8947;-69
2021/12/18 06:21:42;;;;;;;;;14.80;12.00;;;;;4.44;70.14;100595.31;4989599;28;8868;-69
2021/12/18 06:24:11;;;;;;;;;11.40;9.60;;;;;4.62;70.00;100605.50;4989369;28;8970;-68
2021/12/18 06:26:41;;;;;;;;;14.40;14.40;;;;;4.83;70.31;100602.00;5021366;28;8886;-68
2021/12/18 06:29:10;;;;;;;;;19.20;15.60;;;;;5.02;69.22;100609.66;4989541;28;9141;-70
2021/12/18 06:31:39;;;;;;;;;17.60;15.00;;;;;5.01;67.91;100618.25;4989539;28;8880;-68
2021/12/18 06:34:10;;;;;;;;;15.40;13.80;;;;;5.10;68.14;100622.88;4989282;28;8865;-69
2021/12/18 06:36:38;;;;;;;;;14.40;12.00;;;;;5.12;67.22;100631.56;4989057;28;8884;-69
2021/12/18 06:39:07;;;;;;;;;16.80;15.00;;;;;4.91;67.56;100623.84;4989003;28;8837;-68
2021/12/18 06:41:36;;;;;;;;;18.40;15.40;;;;;5.05;67.56;100629.59;4989635;28;8860;-69
2021/12/18 06:44:05;;;;;;;;;13.60;12.80;;;;;5.17;67.48;100631.78;4989295;28;8871;-70
2021/12/18 06:46:34;;;;;;;;;20.80;14.20;;;;;5.15;67.09;100633.41;4987058;28;8891;-69
2021/12/18 06:49:04;;;;;;;;;16.00;14.00;;;;;4.48;68.49;100640.22;4989456;28;8915;-70
2021/12/18 06:51:34;;;;;;;;;15.00;13.80;;;;;4.49;69.58;100639.38;4988794;28;8869;-69
2021/12/18 06:54:03;;;;;;;;;17.00;14.40;;;;;4.24;69.77;100634.91;4988726;28;8863;-70
2021/12/18 06:56:33;;;;;;;;;19.20;18.00;;;;;3.62;71.66;100655.41;5020300;28;8880;-68
2021/12/18 06:59:01;;;;;;;;;14.00;14.00;;;;;3.47;72.29;100657.31;4988903;28;8880;-70
2021/12/18 07:01:30;;;;;;;;;14.20;12.60;;;;;3.67;72.49;100648.78;4988646;28;8898;-69
2021/12/18 07:03:59;;;;;;;;;14.20;11.40;;;;;3.69;72.04;100648.84;4988674;28;8883;-70
2021/12/18 07:06:29;;;;;;;;;14.00;13.60;;;;;3.87;72.10;100651.38;5020064;28;8903;-69
2021/12/18 07:08:59;;;;;;;;;14.20;11.60;;;;;3.76;71.38;100655.16;5019763;28;8895;-70
2021/12/18 07:11:28;;;;;;;;;15.00;12.80;;;;;3.56;71.56;100665.47;4988797;28;8877;-68
2021/12/18 07:13:56;;;;;;;;;11.60;10.80;;;;;3.46;72.62;100665.84;4988944;28;8869;-69
2021/12/18 07:16:26;;;;;;;;;17.80;14.00;;;;;3.57;72.09;100661.19;4988690;28;8856;-69
2021/12/18 07:18:54;;;;;;;;;18.80;16.40;;;;;3.57;72.37;100667.22;5020120;28;8869;-68
2021/12/18 07:21:23;;;;;;;;;15.40;14.60;;;;;3.70;71.24;100669.56;4988763;28;8852;-71
2021/12/18 07:23:52;;;;;;;;;22.20;20.60;;;;;3.87;71.37;100670.28;4988826;28;8892;-69
2021/12/18 07:26:23;;;;;;;;;21.00;19.40;;;;;3.71;72.02;100670.44;4986196;28;8891;-69
2021/12/18 07:28:51;;;;;;;;;16.80;13.40;;;;;3.96;71.46;100674.13;5019700;28;8863;-69
2021/12/18 07:31:20;;;;;;;;;19.80;18.40;;;;;4.22;71.12;100681.31;4985982;28;8845;-69
2021/12/18 07:33:49;;;;;;;;;18.40;17.40;;;;;4.30;69.68;100676.47;4988379;28;8962;-70
2021/12/18 07:36:17;;;;;;;;;23.00;20.60;;;;;4.17;69.42;100676.75;4988299;28;8927;-69
2021/12/18 07:38:46;;;;;;;;;17.60;13.60;;;;;3.37;71.64;100683.50;4988795;28;8879;-70
2021/12/18 07:41:15;;;;;;;;;15.00;14.00;;;;;3.08;73.23;100690.69;5019933;28;8861;-69
2021/12/18 07:43:45;;;;;;;;;22.00;17.00;;;;;2.91;74.72;100695.94;4988244;28;8899;-68
2021/12/18 07:46:14;;;;;;;;;19.20;17.60;;;;;2.74;75.21;100696.78;4988202;28;8956;-71
2021/12/18 07:48:44;;;;;;;;;16.80;14.00;;;;;2.64;76.23;100703.16;4970225;28;8872;-69
2021/12/18 07:51:13;;;;;;;;;14.60;12.40;;;;;2.71;76.16;100710.41;4988372;28;8868;-68
2021/12/18 07:53:42;;;;;;;;;18.80;16.60;;;;;2.64;76.04;100705.75;4970192;28;9580;-71
2021/12/18 07:56:10;;;;;;;;;16.00;13.20;;;;;2.82;75.99;100702.34;5019532;28;8868;-68
2021/12/18 07:58:40;;;;;;;;;20.60;16.80;;;;;3.10;74.43;100707.13;4988489;28;8868;-69
2021/12/18 08:01:10;;;;;;;;;14.20;13.60;;;;;3.23;73.27;100699.19;4988483;28;8848;-68
2021/12/18 08:03:38;;;;;;;;;17.80;13.60;;;;;3.36;73.63;100707.50;4988337;28;9003;-70
2021/12/18 08:06:07;;;;;;;;;18.00;14.40;;;;;3.52;72.64;100702.25;4988414;28;8841;-70
2021/12/18 08:08:36;;;;;;;;;16.60;14.00;;;;;3.83;71.54;100698.47;5019396;28;8844;-69
2021/12/18 08:11:05;;;;;;;;;18.00;17.20;;;;;4.07;71.26;100701.28;5005300;28;8918;-70
2021/12/18 08:13:33;;;;;;;;;12.20;5.60;;;;;4.08;70.08;100698.78;5004718;28;8887;-70
2021/12/18 08:16:02;;;;;;;;;21.60;20.40;;;;;4.37;69.16;100690.53;5023110;28;8906;-70
2021/12/18 08:18:32;;;;;;;;;19.80;17.20;;;;;4.33;68.28;100694.69;4991983;28;8851;-69
2021/12/18 08:21:01;;;;;;;;;15.00;14.00;;;;;4.30;67.30;100699.72;5008324;28;8970;-71
2021/12/18 08:23:30;;;;;;;;;9.40;7.60;;;;;4.53;67.72;100694.66;5008589;28;9661;-69
2021/12/18 08:25:58;;;;;;;;;18.00;14.00;;;;;4.61;66.86;100701.00;5008369;28;8864;-70
2021/12/18 08:28:27;;;;;;;;;15.60;14.60;;;;;4.67;66.62;100703.88;4992245;28;8840;-69
2021/12/18 08:30:56;;;;;;;;;9.80;9.40;;;;;4.72;66.21;100696.31;5008416;28;8894;-68
2021/12/18 08:33:24;;;;;;;;;15.00;12.20;;;;;4.74;66.06;100687.78;4976090;28;8894;-69
2021/12/18 08:35:54;;;;;;;;;13.40;11.00;;;;;4.73;65.27;100698.09;5008255;28;8860;-69
2021/12/18 08:38:23;;;;;;;;;18.20;17.40;;;;;4.83;65.96;100695.91;5008312;28;8852;-70
2021/12/18 08:40:52;;;;;;;;;18.60;13.80;;;;;4.93;66.39;100693.72;5008426;28;9585;-69
2021/12/18 08:43:20;;;;;;;;;19.00;16.60;;;;;4.98;65.51;100700.84;4992612;28;8860;-69
2021/12/18 08:45:49;;;;;;;;;14.20;13.00;;;;;4.90;65.32;100699.66;5022480;28;8868;-72
2021/12/18 08:48:18;;;;;;;;;17.80;14.20;;;;;5.06;65.23;100703.72;4990833;28;8867;-69
2021/12/18 08:50:47;;;;;;;;;11.80;10.80;;;;;5.14;64.96;100710.09;4991063;28;9606;-69
2021/12/18 08:53:17;;;;;;;;;12.60;8.80;;;;;4.91;63.66;100697.94;5004846;28;8910;-69
2021/12/18 08:55:46;;;;;;;;;8.60;8.20;;;;;4.77;64.53;100705.13;4990784;28;8860;-69
2021/12/18 08:58:14;;;;;;;;;12.20;8.60;;;;;4.77;65.00;100697.38;5022411;28;8995;-70
2021/12/18 09:00:43;;;;;;;;;9.60;9.60;;;;;4.94;65.14;100700.66;5022452;28;8900;-70
2021/12/18 09:03:12;;;;;;;;;8.80;7.20;;;;;4.88;64.24;100711.63;4990605;28;8977;-69
2021/12/18 09:05:41;;;;;;;;;12.00;12.00;;;;;4.87;64.98;100712.44;4990803;28;8833;-69
2021/12/18 09:08:09;;;;;;;;;10.80;9.20;;;;;4.86;64.41;100702.94;4991100;28;8864;-69
2021/12/18 09:10:39;;;;;;;;;12.80;10.80;;;;;4.90;64.21;100686.72;5006900;28;9079;-69
2021/12/18 09:13:08;;;;;;;;;10.20;8.60;;;;;4.75;65.33;100683.53;5007703;28;8864;-69
2021/12/18 09:15:37;;;;;;;;;14.40;11.40;;;;;4.80;65.73;100697.50;4959709;28;8859;-70
2021/12/18 09:18:05;;;;;;;;;10.60;9.00;;;;;4.61;65.10;100686.41;5007150;28;8853;-69
2021/12/18 09:20:34;;;;;;;;;17.00;13.20;;;;;4.75;65.62;100680.94;4958103;28;8876;-70
2021/12/18 09:23:03;;;;;;;;;11.60;11.20;;;;;4.69;65.82;100673.81;5007131;28;8856;-68
2021/12/18 09:25:31;;;;;;;;;6.40;6.20;;;;;4.70;65.93;100685.91;4974790;28;8933;-69
2021/12/18 09:28:01;;;;;;;;;10.80;8.20;;;;;4.72;65.13;100685.97;5007214;28;8868;-69
2021/12/18 09:30:30;;;;;;;;;8.60;8.60;;;;;4.78;65.41;100681.03;5007226;28;8853;-69
2021/12/18 09:32:59;;;;;;;;;9.60;9.60;;;;;4.85;64.77;100683.94;5006727;28;8885;-69
2021/12/18 09:35:28;;;;;;;;;12.80;9.80;;;;;4.78;64.74;100678.47;4987133;28;8854;-69
2021/12/18 09:37:57;;;;;;;;;13.60;12.80;;;;;4.65;65.22;100658.97;4955755;28;8854;-70
2021/12/18 09:40:26;;;;;;;;;10.80;10.80;;;;;4.72;65.50;100683.38;4987137;28;8870;-69
2021/12/18 09:42:54;;;;;;;;;10.20;10.20;;;;;4.77;65.02;100675.00;4987142;28;9006;-69
2021/12/18 09:45:25;;;;;;;;;11.80;11.40;;;;;4.85;65.78;100683.06;4987521;28;9764;-70
2021/12/18 09:47:54;;;;;;;;;18.60;16.00;;;;;4.84;65.42;100677.03;4987244;28;8868;-69
2021/12/18 09:50:26;;;;;;;;;11.00;11.00;;;;;4.77;65.17;100679.28;4986991;28;9010;-70
2021/12/18 09:52:55;;;;;;;;;12.00;12.00;;;;;4.76;65.49;100683.56;5003386;28;8880;-71
2021/12/18 09:55:23;;;;;;;;;10.20;8.40;;;;;4.91;65.26;100683.31;5003797;28;9027;-71
2021/12/18 09:57:52;;;;;;;;;19.60;12.00;;;;;4.59;66.04;100680.28;4987142;28;8896;-70
2021/12/18 10:00:24;;;;;;;;;11.80;9.00;;;;;4.74;65.41;100687.78;4986645;28;8864;-70
2021/12/18 10:02:54;;;;;;;;;14.80;11.00;;;;;4.98;65.95;100687.03;4986327;28;8873;-70
2021/12/18 10:05:27;;;;;;;;;11.20;9.00;;;;;5.06;65.12;100690.81;4987106;28;8895;-70
2021/12/18 10:08:11;;;;;;;;;10.80;9.20;;;;;5.04;65.29;100697.63;4988242;28;8884;-69
2021/12/18 10:10:59;;;;;;;;;13.80;10.60;;;;;5.06;64.99;100690.81;4955270;28;8880;-70
2021/12/18 10:13:28;;;;;;;;;11.80;11.80;;;;;5.14;64.77;100683.34;4986763;28;8880;-70
2021/12/18 10:16:11;;;;;;;;;11.40;11.20;;;;;5.24;64.60;100699.28;4989069;28;8845;-69
2021/12/18 10:18:41;;;;;;;;;15.00;15.00;;;;;5.41;64.06;100696.50;5020403;28;8883;-69
2021/12/18 10:21:12;;;;;;;;;18.80;18.80;;;;;5.43;63.92;100703.47;4986946;28;8906;-70
2021/12/18 10:23:42;;;;;;;;;12.60;12.20;;;;;5.62;62.93;100701.63;4989198;28;8903;-69
2021/12/18 10:26:35;;;;;;;;;10.20;9.40;;;;;5.83;62.89;100705.00;4989107;28;8970;-70
2021/12/18 10:29:25;;;;;;;;;16.00;11.40;;;;;5.94;61.23;100702.81;4989140;28;8848;-70
2021/12/18 10:31:54;;;;;;;;;10.80;10.00;;;;;6.01;62.33;100698.75;4988929;28;8880;-70
2021/12/18 10:34:26;;;;;;;;;15.80;12.60;;;;;6.01;61.84;100686.72;5020351;28;8899;-70
2021/12/18 10:37:14;;;;;;;;;19.60;17.20;;;;;6.07;62.06;100696.41;4988807;28;8978;-72
2021/12/18 10:39:46;;;;;;;;;22.40;19.20;;;;;5.99;62.53;100698.72;4988510;28;8835;-70
2021/12/18 10:42:17;;;;;;;;;6.80;6.80;;;;;5.81;62.65;100688.53;4988932;28;8861;-69
2021/12/18 10:45:08;;;;;;;;;6.00;5.00;;;;;6.02;61.80;100688.47;4988648;28;8856;-71
2021/12/18 10:47:49;;;;;;;;;12.00;9.00;;;;;5.98;62.38;100691.78;4988521;28;8845;-69
2021/12/18 10:50:24;;;;;;;;;19.60;13.40;;;;;6.22;62.13;100690.91;4988007;28;8856;-70
2021/12/18 10:52:55;;;;;;;;;8.00;6.40;;;;;6.31;61.41;100687.75;4988547;28;8864;-70
2021/12/18 10:55:32;;;;;;;;;10.20;9.40;;;;;6.38;61.08;100675.06;4985971;28;8876;-71
2021/12/18 10:58:03;;;;;;;;;8.00;8.00;;;;;6.41;60.89;100684.66;4988159;28;8875;-69
2021/12/18 11:00:34;;;;;;;;;12.60;9.40;;;;;6.53;60.56;100685.06;5019854;28;8852;-68
2021/12/18 11:03:25;;;;;;;;;8.20;7.60;;;;;6.48;59.60;100683.16;4988822;28;8864;-67
2021/12/18 11:06:08;;;;;;;;;6.00;5.80;;;;;6.51;60.14;100678.97;4988348;28;9695;-69
2021/12/18 11:08:52;;;;;;;;;13.00;13.00;;;;;6.72;59.28;100686.56;4988303;28;8963;-70
2021/12/18 11:14:07;;;;;;;;;8.60;6.60;;;;;6.61;59.92;100675.84;4985642;28;8866;-69
2021/12/18 11:16:37;;;;;;;;;18.60;11.60;;;;;6.75;59.50;100685.81;4985352;28;8854;-68
2021/12/18 11:19:08;;;;;;;;;7.80;5.80;;;;;6.82;59.31;100675.69;4952657;28;8834;-69
2021/12/18 11:21:39;;;;;;;;;13.80;13.00;;;;;6.86;59.01;100684.41;4985886;28;8862;-69
2021/12/18 11:24:09;;;;;;;;;10.60;9.40;;;;;7.05;59.34;100680.75;4985797;28;8945;-71
2021/12/18 11:26:41;;;;;;;;;8.20;8.20;;;;;7.12;58.70;100679.22;4985259;28;9069;-69
2021/12/18 11:29:14;;;;;;;;;14.20;11.60;;;;;7.04;57.84;100673.78;4985559;28;8866;-69
2021/12/18 11:31:43;;;;;;;;;9.00;7.20;;;;;6.96;57.90;100676.13;4923172;28;8864;-70
2021/12/18 11:34:12;;;;;;;;;6.40;6.20;;;;;6.90;58.42;100681.13;4985683;28;9604;-70
2021/12/18 11:36:44;;;;;;;;;9.20;9.20;;;;;6.96;57.56;100670.06;4985580;28;8920;-70
2021/12/18 11:39:15;;;;;;;;;11.20;10.40;;;;;7.01;58.28;100669.38;4969112;28;8859;-71
2021/12/18 11:41:49;;;;;;;;;6.60;6.60;;;;;6.99;58.02;100660.69;4985717;28;8862;-70
2021/12/18 11:44:29;;;;;;;;;9.00;7.40;;;;;7.10;57.61;100666.19;4985351;28;8873;-70
2021/12/18 11:46:59;;;;;;;;;10.40;8.20;;;;;7.03;57.45;100678.09;4965343;28;8888;-70
2021/12/18 11:49:44;;;;;;;;;10.00;9.80;;;;;7.16;57.35;100668.09;4975339;28;8915;-71
2021/12/18 11:52:14;;;;;;;;;12.00;10.20;;;;;7.06;57.73;100671.25;4972690;28;8864;-71
2021/12/18 11:54:49;;;;;;;;;6.60;5.00;;;;;7.11;58.09;100665.38;4957115;28;8882;-71
2021/12/18 11:57:41;;;;;;;;;25.40;21.20;;;;;7.05;58.36;100664.28;4988778;28;8844;-70
2021/12/18 12:00:34;;;;;;;;;13.40;12.80;;;;;7.21;57.63;100670.00;5005899;28;8828;-70
2021/12/18 12:03:04;;;;;;;;;15.20;11.20;;;;;7.19;57.56;100661.28;4957122;28;8829;-70
2021/12/18 12:05:36;;;;;;;;;14.80;12.60;;;;;7.11;57.06;100672.28;4989067;28;8856;-71
2021/12/18 12:08:34;;;;;;;;;10.00;10.00;;;;;6.89;57.77;100656.00;4989241;28;8856;-70
2021/12/18 12:11:23;;;;;;;;;17.00;13.20;;;;;6.68;58.24;100656.19;4988690;28;8840;-70
2021/12/18 12:13:56;;;;;;;;;17.20;16.80;;;;;6.66;58.26;100644.03;4969027;28;8841;-70
2021/12/18 12:17:02;;;;;;;;;13.60;13.00;;;;;6.51;58.96;100650.44;4953077;28;9668;-69
2021/12/18 12:20:05;;;;;;;;;10.80;9.00;;;;;6.57;57.93;100642.00;4997673;28;8810;-70
2021/12/18 12:22:52;;;;;;;;;9.20;9.20;;;;;6.60;58.20;100637.81;4956503;28;8876;-69